sensor_id;sensor_type;location;lat;lon;timestamp;P1;durP1;ratioP1;P2;durP2;ratioP2
18274;SDS011;19470;49.322;7.218;2023-08-31T00:00:54;9.38;;;6.47;;
18274;SDS011;19470;49.322;7.218;2023-08-31T00:03:20;12.02;;;6.18;;
18274;SDS011;19470;49.322;7.218;2023-08-31T00:05:47;11.93;;;5.85;;
18274;SDS011;19470;49.322;7.218;2023-08-31T00:08:16;9.90;;;5.63;;
18274;SDS011;19470;49.322;7.218;2023-08-31T00:10:44;11.23;;;5.47;;
18274;SDS011;19470;49.322;7.218;2023-08-31T00:13:11;10.30;;;5.50;;
18274;SDS011;19470;49.322;7.218;2023-08-31T00:15:37;7.45;;;5.00;;
18274;SDS011;19470;49.322;7.218;2023-08-31T00:18:06;10.93;;;4.85;;
18274;SDS011;19470;49.322;7.218;2023-08-31T00:20:33;9.20;;;4.43;;
18274;SDS011;19470;49.322;7.218;2023-08-31T00:23:00;8.35;;;4.28;;
18274;SDS011;19470;49.322;7.218;2023-08-31T00:25:26;9.07;;;4.60;;
18274;SDS011;19470;49.322;7.218;2023-08-31T00:27:54;9.52;;;4.47;;
18274;SDS011;19470;49.322;7.218;2023-08-31T00:30:22;8.65;;;4.65;;
18274;SDS011;19470;49.322;7.218;2023-08-31T00:32:50;9.95;;;4.13;;
18274;SDS011;19470;49.322;7.218;2023-08-31T00:35:18;9.85;;;4.78;;
18274;SDS011;19470;49.322;7.218;2023-08-31T00:37:45;9.77;;;4.05;;
18274;SDS011;19470;49.322;7.218;2023-08-31T00:40:11;7.55;;;4.07;;
18274;SDS011;19470;49.322;7.218;2023-08-31T00:42:39;9.63;;;4.28;;
18274;SDS011;19470;49.322;7.218;2023-08-31T00:45:07;12.23;;;4.45;;
18274;SDS011;19470;49.322;7.218;2023-08-31T00:47:35;5.88;;;4.03;;
18274;SDS011;19470;49.322;7.218;2023-08-31T00:50:01;8.75;;;4.07;;
18274;SDS011;19470;49.322;7.218;2023-08-31T00:52:28;9.70;;;4.53;;
18274;SDS011;19470;49.322;7.218;2023-08-31T00:54:55;11.52;;;4.25;;
18274;SDS011;19470;49.322;7.218;2023-08-31T00:57:21;7.35;;;3.55;;
18274;SDS011;19470;49.322;7.218;2023-08-31T00:59:51;8.38;;;3.63;;
18274;SDS011;19470;49.322;7.218;2023-08-31T01:02:21;6.75;;;3.72;;
18274;SDS011;19470;49.322;7.218;2023-08-31T01:04:56;6.25;;;3.60;;
18274;SDS011;19470;49.322;7.218;2023-08-31T01:07:31;8.82;;;3.60;;
18274;SDS011;19470;49.322;7.218;2023-08-31T01:10:08;9.50;;;3.33;;
18274;SDS011;19470;49.322;7.218;2023-08-31T01:12:43;9.65;;;3.75;;
18274;SDS011;19470;49.322;7.218;2023-08-31T01:15:13;9.68;;;3.95;;
18274;SDS011;19470;49.322;7.218;2023-08-31T01:17:44;7.38;;;3.53;;
18274;SDS011;19470;49.322;7.218;2023-08-31T01:20:14;7.70;;;3.42;;
18274;SDS011;19470;49.322;7.218;2023-08-31T01:22:47;8.55;;;4.20;;
18274;SDS011;19470;49.322;7.218;2023-08-31T01:25:19;6.65;;;3.53;;
18274;SDS011;19470;49.322;7.218;2023-08-31T01:27:46;10.32;;;3.47;;
18274;SDS011;19470;49.322;7.218;2023-08-31T01:30:13;6.25;;;3.10;;
18274;SDS011;19470;49.322;7.218;2023-08-31T01:32:42;5.88;;;3.30;;
18274;SDS011;19470;49.322;7.218;2023-08-31T01:35:10;7.50;;;3.80;;
18274;SDS011;19470;49.322;7.218;2023-08-31T01:37:39;10.63;;;3.80;;
18274;SDS011;19470;49.322;7.218;2023-08-31T01:40:12;8.60;;;3.55;;
18274;SDS011;19470;49.322;7.218;2023-08-31T01:42:44;9.65;;;3.42;;
18274;SDS011;19470;49.322;7.218;2023-08-31T01:45:13;6.82;;;3.83;;
18274;SDS011;19470;49.322;7.218;2023-08-31T01:47:44;6.80;;;3.28;;
18274;SDS011;19470;49.322;7.218;2023-08-31T01:50:11;6.03;;;3.25;;
18274;SDS011;19470;49.322;7.218;2023-08-31T01:52:38;10.05;;;3.70;;
18274;SDS011;19470;49.322;7.218;2023-08-31T01:55:05;11.23;;;3.78;;
18274;SDS011;19470;49.322;7.218;2023-08-31T01:57:32;9.57;;;3.42;;
18274;SDS011;19470;49.322;7.218;2023-08-31T02:00:01;8.27;;;3.72;;
18274;SDS011;19470;49.322;7.218;2023-08-31T02:02:34;7.68;;;3.70;;
18274;SDS011;19470;49.322;7.218;2023-08-31T02:05:04;6.72;;;3.78;;
18274;SDS011;19470;49.322;7.218;2023-08-31T02:07:31;9.70;;;3.55;;
18274;SDS011;19470;49.322;7.218;2023-08-31T02:09:57;9.90;;;3.83;;
18274;SDS011;19470;49.322;7.218;2023-08-31T02:12:24;10.70;;;3.90;;
18274;SDS011;19470;49.322;7.218;2023-08-31T02:14:50;9.05;;;4.30;;
18274;SDS011;19470;49.322;7.218;2023-08-31T02:17:18;7.97;;;4.00;;
18274;SDS011;19470;49.322;7.218;2023-08-31T02:19:45;6.55;;;3.65;;
18274;SDS011;19470;49.322;7.218;2023-08-31T02:22:11;10.55;;;4.28;;
18274;SDS011;19470;49.322;7.218;2023-08-31T02:24:38;7.97;;;3.90;;
18274;SDS011;19470;49.322;7.218;2023-08-31T02:27:04;9.93;;;4.25;;
18274;SDS011;19470;49.322;7.218;2023-08-31T02:29:31;8.48;;;4.22;;
18274;SDS011;19470;49.322;7.218;2023-08-31T02:31:57;9.02;;;3.90;;
18274;SDS011;19470;49.322;7.218;2023-08-31T02:34:25;7.30;;;3.85;;
18274;SDS011;19470;49.322;7.218;2023-08-31T02:36:52;5.57;;;3.72;;
18274;SDS011;19470;49.322;7.218;2023-08-31T02:39:18;9.07;;;4.05;;
18274;SDS011;19470;49.322;7.218;2023-08-31T02:41:45;5.50;;;3.72;;
18274;SDS011;19470;49.322;7.218;2023-08-31T02:44:11;6.32;;;3.85;;
18274;SDS011;19470;49.322;7.218;2023-08-31T02:46:37;9.23;;;3.83;;
18274;SDS011;19470;49.322;7.218;2023-08-31T02:49:04;13.00;;;3.78;;
18274;SDS011;19470;49.322;7.218;2023-08-31T02:51:32;9.40;;;4.00;;
18274;SDS011;19470;49.322;7.218;2023-08-31T02:53:58;7.45;;;3.50;;
18274;SDS011;19470;49.322;7.218;2023-08-31T02:56:25;12.05;;;4.28;;
18274;SDS011;19470;49.322;7.218;2023-08-31T02:58:53;7.95;;;4.13;;
18274;SDS011;19470;49.322;7.218;2023-08-31T03:01:20;6.30;;;4.03;;
18274;SDS011;19470;49.322;7.218;2023-08-31T03:03:46;6.28;;;3.72;;
18274;SDS011;19470;49.322;7.218;2023-08-31T03:06:13;7.70;;;3.85;;
18274;SDS011;19470;49.322;7.218;2023-08-31T03:08:41;14.60;;;4.28;;
18274;SDS011;19470;49.322;7.218;2023-08-31T03:11:08;9.93;;;3.55;;
18274;SDS011;19470;49.322;7.218;2023-08-31T03:13:34;8.68;;;3.55;;
18274;SDS011;19470;49.322;7.218;2023-08-31T03:16:01;8.57;;;3.58;;
18274;SDS011;19470;49.322;7.218;2023-08-31T03:18:28;10.23;;;3.60;;
18274;SDS011;19470;49.322;7.218;2023-08-31T03:20:55;8.35;;;3.25;;
18274;SDS011;19470;49.322;7.218;2023-08-31T03:23:22;8.35;;;3.70;;
18274;SDS011;19470;49.322;7.218;2023-08-31T03:25:50;6.95;;;2.95;;
18274;SDS011;19470;49.322;7.218;2023-08-31T03:28:16;10.20;;;3.50;;
18274;SDS011;19470;49.322;7.218;2023-08-31T03:30:43;8.10;;;3.08;;
18274;SDS011;19470;49.322;7.218;2023-08-31T03:33:10;9.13;;;4.20;;
18274;SDS011;19470;49.322;7.218;2023-08-31T03:35:36;8.07;;;3.33;;
18274;SDS011;19470;49.322;7.218;2023-08-31T03:38:03;9.95;;;3.67;;
18274;SDS011;19470;49.322;7.218;2023-08-31T03:40:30;6.65;;;3.13;;
18274;SDS011;19470;49.322;7.218;2023-08-31T03:42:58;8.30;;;3.08;;
18274;SDS011;19470;49.322;7.218;2023-08-31T03:45:25;7.72;;;2.97;;
18274;SDS011;19470;49.322;7.218;2023-08-31T03:47:51;12.05;;;3.20;;
18274;SDS011;19470;49.322;7.218;2023-08-31T03:50:18;9.82;;;2.88;;
18274;SDS011;19470;49.322;7.218;2023-08-31T03:52:44;11.20;;;3.63;;
18274;SDS011;19470;49.322;7.218;2023-08-31T03:55:11;8.55;;;3.35;;
18274;SDS011;19470;49.322;7.218;2023-08-31T03:57:37;8.40;;;3.70;;
18274;SDS011;19470;49.322;7.218;2023-08-31T04:00:06;4.95;;;2.90;;
18274;SDS011;19470;49.322;7.218;2023-08-31T04:02:33;6.75;;;2.90;;
18274;SDS011;19470;49.322;7.218;2023-08-31T04:05:00;9.82;;;3.55;;
18274;SDS011;19470;49.322;7.218;2023-08-31T04:07:30;6.50;;;3.28;;
18274;SDS011;19470;49.322;7.218;2023-08-31T04:09:58;10.18;;;3.35;;
18274;SDS011;19470;49.322;7.218;2023-08-31T04:12:24;7.72;;;3.13;;
18274;SDS011;19470;49.322;7.218;2023-08-31T04:14:51;6.10;;;2.63;;
18274;SDS011;19470;49.322;7.218;2023-08-31T04:17:19;6.18;;;2.92;;
18274;SDS011;19470;49.322;7.218;2023-08-31T04:19:45;7.03;;;2.95;;
18274;SDS011;19470;49.322;7.218;2023-08-31T04:22:11;7.25;;;3.08;;
18274;SDS011;19470;49.322;7.218;2023-08-31T04:24:38;7.80;;;3.22;;
18274;SDS011;19470;49.322;7.218;2023-08-31T04:27:05;8.50;;;3.20;;
18274;SDS011;19470;49.322;7.218;2023-08-31T04:29:31;8.70;;;3.50;;
18274;SDS011;19470;49.322;7.218;2023-08-31T04:31:57;8.70;;;2.92;;
18274;SDS011;19470;49.322;7.218;2023-08-31T04:34:26;7.85;;;3.13;;
18274;SDS011;19470;49.322;7.218;2023-08-31T04:36:52;8.73;;;3.70;;
18274;SDS011;19470;49.322;7.218;2023-08-31T04:39:19;4.28;;;3.00;;
18274;SDS011;19470;49.322;7.218;2023-08-31T04:41:45;6.88;;;3.50;;
18274;SDS011;19470;49.322;7.218;2023-08-31T04:44:12;11.35;;;3.83;;
18274;SDS011;19470;49.322;7.218;2023-08-31T04:46:38;12.18;;;3.38;;
18274;SDS011;19470;49.322;7.218;2023-08-31T04:49:06;5.20;;;2.65;;
18274;SDS011;19470;49.322;7.218;2023-08-31T04:51:35;8.77;;;3.47;;
18274;SDS011;19470;49.322;7.218;2023-08-31T04:54:04;7.97;;;2.97;;
18274;SDS011;19470;49.322;7.218;2023-08-31T04:56:31;5.72;;;3.40;;
18274;SDS011;19470;49.322;7.218;2023-08-31T04:58:58;8.48;;;4.18;;
18274;SDS011;19470;49.322;7.218;2023-08-31T05:01:25;8.55;;;4.30;;
18274;SDS011;19470;49.322;7.218;2023-08-31T05:03:52;5.80;;;3.63;;
18274;SDS011;19470;49.322;7.218;2023-08-31T05:06:18;7.00;;;3.92;;
18274;SDS011;19470;49.322;7.218;2023-08-31T05:08:46;10.68;;;4.13;;
18274;SDS011;19470;49.322;7.218;2023-08-31T05:11:13;7.30;;;3.33;;
18274;SDS011;19470;49.322;7.218;2023-08-31T05:13:39;6.90;;;3.97;;
18274;SDS011;19470;49.322;7.218;2023-08-31T05:16:07;7.28;;;4.05;;
18274;SDS011;19470;49.322;7.218;2023-08-31T05:18:35;11.38;;;4.88;;
18274;SDS011;19470;49.322;7.218;2023-08-31T05:21:02;11.45;;;4.35;;
18274;SDS011;19470;49.322;7.218;2023-08-31T05:23:28;7.32;;;4.13;;
18274;SDS011;19470;49.322;7.218;2023-08-31T05:25:56;7.18;;;4.05;;
18274;SDS011;19470;49.322;7.218;2023-08-31T05:28:23;9.13;;;4.35;;
18274;SDS011;19470;49.322;7.218;2023-08-31T05:30:50;6.97;;;3.90;;
18274;SDS011;19470;49.322;7.218;2023-08-31T05:33:17;12.93;;;4.93;;
18274;SDS011;19470;49.322;7.218;2023-08-31T05:35:43;9.80;;;5.20;;
18274;SDS011;19470;49.322;7.218;2023-08-31T05:38:10;8.38;;;4.55;;
18274;SDS011;19470;49.322;7.218;2023-08-31T05:40:37;10.13;;;5.20;;
18274;SDS011;19470;49.322;7.218;2023-08-31T05:43:05;11.88;;;4.95;;
18274;SDS011;19470;49.322;7.218;2023-08-31T05:45:32;9.63;;;4.75;;
18274;SDS011;19470;49.322;7.218;2023-08-31T05:47:59;7.22;;;4.97;;
18274;SDS011;19470;49.322;7.218;2023-08-31T05:50:26;9.73;;;4.60;;
18274;SDS011;19470;49.322;7.218;2023-08-31T05:52:52;11.07;;;4.53;;
18274;SDS011;19470;49.322;7.218;2023-08-31T05:55:19;6.75;;;4.20;;
18274;SDS011;19470;49.322;7.218;2023-08-31T05:57:46;11.68;;;3.97;;
18274;SDS011;19470;49.322;7.218;2023-08-31T06:00:14;6.78;;;3.90;;
18274;SDS011;19470;49.322;7.218;2023-08-31T06:02:41;10.10;;;3.53;;
18274;SDS011;19470;49.322;7.218;2023-08-31T06:05:09;7.07;;;3.83;;
18274;SDS011;19470;49.322;7.218;2023-08-31T06:07:37;10.35;;;4.32;;
18274;SDS011;19470;49.322;7.218;2023-08-31T06:10:04;8.40;;;3.70;;
18274;SDS011;19470;49.322;7.218;2023-08-31T06:12:31;9.55;;;3.08;;
18274;SDS011;19470;49.322;7.218;2023-08-31T06:14:57;10.02;;;3.67;;
18274;SDS011;19470;49.322;7.218;2023-08-31T06:17:26;11.48;;;3.63;;
18274;SDS011;19470;49.322;7.218;2023-08-31T06:19:53;14.55;;;8.38;;
18274;SDS011;19470;49.322;7.218;2023-08-31T06:22:19;7.18;;;3.22;;
18274;SDS011;19470;49.322;7.218;2023-08-31T06:24:48;6.82;;;3.08;;
18274;SDS011;19470;49.322;7.218;2023-08-31T06:27:16;5.55;;;2.90;;
18274;SDS011;19470;49.322;7.218;2023-08-31T06:29:43;6.75;;;2.95;;
18274;SDS011;19470;49.322;7.218;2023-08-31T06:32:10;7.05;;;3.00;;
18274;SDS011;19470;49.322;7.218;2023-08-31T06:34:37;7.20;;;2.90;;
18274;SDS011;19470;49.322;7.218;2023-08-31T06:37:04;4.15;;;2.17;;
18274;SDS011;19470;49.322;7.218;2023-08-31T06:39:30;5.13;;;2.50;;
18274;SDS011;19470;49.322;7.218;2023-08-31T06:41:57;7.72;;;2.53;;
18274;SDS011;19470;49.322;7.218;2023-08-31T06:44:24;7.40;;;2.78;;
18274;SDS011;19470;49.322;7.218;2023-08-31T06:46:51;6.28;;;2.65;;
18274;SDS011;19470;49.322;7.218;2023-08-31T06:49:17;8.30;;;2.33;;
18274;SDS011;19470;49.322;7.218;2023-08-31T06:51:46;8.82;;;2.83;;
18274;SDS011;19470;49.322;7.218;2023-08-31T06:54:21;9.18;;;3.03;;
18274;SDS011;19470;49.322;7.218;2023-08-31T06:56:48;9.20;;;3.08;;
18274;SDS011;19470;49.322;7.218;2023-08-31T06:59:14;3.95;;;2.30;;
18274;SDS011;19470;49.322;7.218;2023-08-31T07:01:41;7.45;;;2.42;;
18274;SDS011;19470;49.322;7.218;2023-08-31T07:04:07;6.10;;;2.30;;
18274;SDS011;19470;49.322;7.218;2023-08-31T07:06:34;7.68;;;2.58;;
18274;SDS011;19470;49.322;7.218;2023-08-31T07:09:03;7.38;;;2.75;;
18274;SDS011;19470;49.322;7.218;2023-08-31T07:11:34;6.22;;;2.15;;
18274;SDS011;19470;49.322;7.218;2023-08-31T07:14:01;4.28;;;2.30;;
18274;SDS011;19470;49.322;7.218;2023-08-31T07:16:28;6.30;;;2.20;;
18274;SDS011;19470;49.322;7.218;2023-08-31T07:18:54;5.82;;;2.13;;
18274;SDS011;19470;49.322;7.218;2023-08-31T07:21:21;6.40;;;2.90;;
18274;SDS011;19470;49.322;7.218;2023-08-31T07:23:47;10.43;;;2.72;;
18274;SDS011;19470;49.322;7.218;2023-08-31T07:26:15;6.38;;;3.03;;
18274;SDS011;19470;49.322;7.218;2023-08-31T07:28:42;5.75;;;2.45;;
18274;SDS011;19470;49.322;7.218;2023-08-31T07:31:08;5.22;;;2.97;;
18274;SDS011;19470;49.322;7.218;2023-08-31T07:33:35;4.22;;;2.30;;
18274;SDS011;19470;49.322;7.218;2023-08-31T07:36:02;5.30;;;2.58;;
18274;SDS011;19470;49.322;7.218;2023-08-31T07:38:29;7.13;;;2.63;;
18274;SDS011;19470;49.322;7.218;2023-08-31T07:40:57;7.82;;;2.88;;
18274;SDS011;19470;49.322;7.218;2023-08-31T07:43:25;6.45;;;2.65;;
18274;SDS011;19470;49.322;7.218;2023-08-31T07:45:51;6.50;;;2.58;;
18274;SDS011;19470;49.322;7.218;2023-08-31T07:48:18;6.13;;;2.47;;
18274;SDS011;19470;49.322;7.218;2023-08-31T07:50:44;8.02;;;2.15;;
18274;SDS011;19470;49.322;7.218;2023-08-31T07:53:11;6.10;;;2.40;;
18274;SDS011;19470;49.322;7.218;2023-08-31T07:55:38;5.22;;;2.40;;
18274;SDS011;19470;49.322;7.218;2023-08-31T07:58:05;5.70;;;1.98;;
18274;SDS011;19470;49.322;7.218;2023-08-31T08:00:33;6.50;;;2.45;;
18274;SDS011;19470;49.322;7.218;2023-08-31T08:02:59;5.35;;;2.28;;
18274;SDS011;19470;49.322;7.218;2023-08-31T08:05:26;6.30;;;2.25;;
18274;SDS011;19470;49.322;7.218;2023-08-31T08:07:53;19.95;;;10.82;;
18274;SDS011;19470;49.322;7.218;2023-08-31T08:10:19;5.32;;;2.08;;
18274;SDS011;19470;49.322;7.218;2023-08-31T08:12:46;5.35;;;3.00;;
18274;SDS011;19470;49.322;7.218;2023-08-31T08:15:13;5.57;;;2.40;;
18274;SDS011;19470;49.322;7.218;2023-08-31T08:17:41;7.55;;;2.45;;
18274;SDS011;19470;49.322;7.218;2023-08-31T08:20:07;4.55;;;2.20;;
18274;SDS011;19470;49.322;7.218;2023-08-31T08:22:35;6.07;;;2.22;;
18274;SDS011;19470;49.322;7.218;2023-08-31T08:25:02;123.65;;;78.32;;
18274;SDS011;19470;49.322;7.218;2023-08-31T08:27:28;5.95;;;2.25;;
18274;SDS011;19470;49.322;7.218;2023-08-31T08:29:56;5.93;;;2.45;;
18274;SDS011;19470;49.322;7.218;2023-08-31T08:32:32;72.20;;;64.78;;
18274;SDS011;19470;49.322;7.218;2023-08-31T08:35:00;5.82;;;4.53;;
18274;SDS011;19470;49.322;7.218;2023-08-31T08:37:27;34.95;;;32.67;;
18274;SDS011;19470;49.322;7.218;2023-08-31T08:39:54;96.47;;;90.10;;
18274;SDS011;19470;49.322;7.218;2023-08-31T08:42:21;127.95;;;120.38;;
18274;SDS011;19470;49.322;7.218;2023-08-31T08:44:50;89.80;;;84.85;;
18274;SDS011;19470;49.322;7.218;2023-08-31T08:47:17;165.88;;;155.80;;
18274;SDS011;19470;49.322;7.218;2023-08-31T08:49:45;103.65;;;97.72;;
18274;SDS011;19470;49.322;7.218;2023-08-31T08:52:14;704.30;;;638.30;;
18274;SDS011;19470;49.322;7.218;2023-08-31T08:54:41;128.45;;;118.72;;
18274;SDS011;19470;49.322;7.218;2023-08-31T08:57:08;102.95;;;96.78;;
18274;SDS011;19470;49.322;7.218;2023-08-31T08:59:34;209.98;;;187.75;;
18274;SDS011;19470;49.322;7.218;2023-08-31T09:02:04;40.03;;;37.25;;
18274;SDS011;19470;49.322;7.218;2023-08-31T09:04:31;21.45;;;20.00;;
18274;SDS011;19470;49.322;7.218;2023-08-31T09:06:58;119.53;;;113.30;;
18274;SDS011;19470;49.322;7.218;2023-08-31T09:09:25;362.73;;;342.65;;
18274;SDS011;19470;49.322;7.218;2023-08-31T09:11:52;768.40;;;716.17;;
18274;SDS011;19470;49.322;7.218;2023-08-31T09:14:20;741.25;;;692.92;;
18274;SDS011;19470;49.322;7.218;2023-08-31T09:16:47;815.10;;;756.28;;
18274;SDS011;19470;49.322;7.218;2023-08-31T09:19:18;596.83;;;559.97;;
18274;SDS011;19470;49.322;7.218;2023-08-31T09:21:46;473.48;;;445.60;;
18274;SDS011;19470;49.322;7.218;2023-08-31T09:24:13;618.25;;;578.88;;
18274;SDS011;19470;49.322;7.218;2023-08-31T09:26:44;629.95;;;591.20;;
18274;SDS011;19470;49.322;7.218;2023-08-31T09:29:11;510.85;;;479.33;;
18274;SDS011;19470;49.322;7.218;2023-08-31T09:31:41;456.00;;;429.20;;
18274;SDS011;19470;49.322;7.218;2023-08-31T09:34:08;524.38;;;491.52;;
18274;SDS011;19470;49.322;7.218;2023-08-31T09:36:35;343.58;;;325.42;;
18274;SDS011;19470;49.322;7.218;2023-08-31T09:39:02;711.53;;;666.17;;
18274;SDS011;19470;49.322;7.218;2023-08-31T09:41:29;880.20;;;818.38;;
18274;SDS011;19470;49.322;7.218;2023-08-31T09:43:57;817.08;;;760.67;;
18274;SDS011;19470;49.322;7.218;2023-08-31T09:46:40;774.33;;;724.22;;
18274;SDS011;19470;49.322;7.218;2023-08-31T09:49:07;843.90;;;785.33;;
18274;SDS011;19470;49.322;7.218;2023-08-31T09:51:34;946.08;;;875.35;;
18274;SDS011;19470;49.322;7.218;2023-08-31T09:54:04;952.83;;;879.38;;
18274;SDS011;19470;49.322;7.218;2023-08-31T09:56:33;974.92;;;902.75;;
18274;SDS011;19470;49.322;7.218;2023-08-31T09:59:01;988.55;;;912.40;;
18274;SDS011;19470;49.322;7.218;2023-08-31T10:01:28;929.47;;;859.38;;
18274;SDS011;19470;49.322;7.218;2023-08-31T10:03:55;956.25;;;882.55;;
18274;SDS011;19470;49.322;7.218;2023-08-31T10:06:23;922.70;;;851.58;;
18274;SDS011;19470;49.322;7.218;2023-08-31T10:08:50;841.47;;;774.88;;
18274;SDS011;19470;49.322;7.218;2023-08-31T10:11:17;847.42;;;613.83;;
18274;SDS011;19470;49.322;7.218;2023-08-31T10:13:44;962.25;;;888.22;;
18274;SDS011;19470;49.322;7.218;2023-08-31T10:16:16;965.03;;;891.55;;
18274;SDS011;19470;49.322;7.218;2023-08-31T10:18:44;960.22;;;885.58;;
18274;SDS011;19470;49.322;7.218;2023-08-31T10:21:11;912.45;;;843.45;;
18274;SDS011;19470;49.322;7.218;2023-08-31T10:23:43;646.22;;;584.95;;
18274;SDS011;19470;49.322;7.218;2023-08-31T10:26:10;977.03;;;901.08;;
18274;SDS011;19470;49.322;7.218;2023-08-31T10:28:42;951.58;;;878.88;;
18274;SDS011;19470;49.322;7.218;2023-08-31T10:31:09;923.25;;;852.83;;
18274;SDS011;19470;49.322;7.218;2023-08-31T10:33:42;887.78;;;820.53;;
18274;SDS011;19470;49.322;7.218;2023-08-31T10:36:10;949.83;;;878.10;;
18274;SDS011;19470;49.322;7.218;2023-08-31T10:38:38;823.50;;;767.50;;
18274;SDS011;19470;49.322;7.218;2023-08-31T10:41:17;922.10;;;837.58;;
18274;SDS011;19470;49.322;7.218;2023-08-31T10:43:46;812.33;;;753.45;;
18274;SDS011;19470;49.322;7.218;2023-08-31T10:46:27;780.47;;;726.13;;
18274;SDS011;19470;49.322;7.218;2023-08-31T10:48:56;430.90;;;405.38;;
18274;SDS011;19470;49.322;7.218;2023-08-31T10:51:24;419.95;;;389.52;;
18274;SDS011;19470;49.322;7.218;2023-08-31T10:53:53;529.63;;;497.15;;
18274;SDS011;19470;49.322;7.218;2023-08-31T10:56:38;739.33;;;690.70;;
18274;SDS011;19470;49.322;7.218;2023-08-31T10:59:21;923.38;;;856.28;;
18274;SDS011;19470;49.322;7.218;2023-08-31T11:01:51;994.83;;;913.63;;
18274;SDS011;19470;49.322;7.218;2023-08-31T11:04:19;836.75;;;764.17;;
18274;SDS011;19470;49.322;7.218;2023-08-31T11:06:46;975.50;;;901.40;;
18274;SDS011;19470;49.322;7.218;2023-08-31T11:09:18;971.45;;;896.70;;
18274;SDS011;19470;49.322;7.218;2023-08-31T11:11:46;851.88;;;784.35;;
18274;SDS011;19470;49.322;7.218;2023-08-31T11:14:13;950.10;;;876.13;;
18274;SDS011;19470;49.322;7.218;2023-08-31T11:16:39;953.38;;;881.17;;
18274;SDS011;19470;49.322;7.218;2023-08-31T11:19:06;150.55;;;141.13;;
18274;SDS011;19470;49.322;7.218;2023-08-31T11:21:34;968.97;;;892.90;;
18274;SDS011;19470;49.322;7.218;2023-08-31T11:24:03;1028.03;;;945.88;;
18274;SDS011;19470;49.322;7.218;2023-08-31T11:26:31;954.35;;;881.13;;
18274;SDS011;19470;49.322;7.218;2023-08-31T11:28:58;1029.40;;;941.45;;
18274;SDS011;19470;49.322;7.218;2023-08-31T11:31:24;713.33;;;654.35;;
18274;SDS011;19470;49.322;7.218;2023-08-31T11:33:51;1007.47;;;927.95;;
18274;SDS011;19470;49.322;7.218;2023-08-31T11:36:17;841.05;;;766.88;;
18274;SDS011;19470;49.322;7.218;2023-08-31T11:38:46;689.83;;;640.17;;
18274;SDS011;19470;49.322;7.218;2023-08-31T11:41:13;397.27;;;359.40;;
18274;SDS011;19470;49.322;7.218;2023-08-31T11:43:40;775.00;;;722.78;;
18274;SDS011;19470;49.322;7.218;2023-08-31T11:46:07;697.80;;;652.47;;
18274;SDS011;19470;49.322;7.218;2023-08-31T11:48:35;668.90;;;626.97;;
18274;SDS011;19470;49.322;7.218;2023-08-31T11:51:01;608.97;;;571.85;;
18274;SDS011;19470;49.322;7.218;2023-08-31T11:53:28;418.63;;;394.83;;
18274;SDS011;19470;49.322;7.218;2023-08-31T11:55:56;618.47;;;577.33;;
18274;SDS011;19470;49.322;7.218;2023-08-31T11:58:23;193.43;;;183.05;;
18274;SDS011;19470;49.322;7.218;2023-08-31T12:00:56;489.02;;;459.83;;
18274;SDS011;19470;49.322;7.218;2023-08-31T12:03:23;742.10;;;693.50;;
18274;SDS011;19470;49.322;7.218;2023-08-31T12:05:51;920.22;;;854.90;;
18274;SDS011;19470;49.322;7.218;2023-08-31T12:08:23;877.30;;;815.38;;
18274;SDS011;19470;49.322;7.218;2023-08-31T12:10:51;879.70;;;817.65;;
18274;SDS011;19470;49.322;7.218;2023-08-31T12:13:18;677.65;;;633.95;;
18274;SDS011;19470;49.322;7.218;2023-08-31T12:15:45;561.20;;;524.35;;
18274;SDS011;19470;49.322;7.218;2023-08-31T12:18:12;473.17;;;441.83;;
18274;SDS011;19470;49.322;7.218;2023-08-31T12:20:43;179.32;;;169.38;;
18274;SDS011;19470;49.322;7.218;2023-08-31T12:23:10;741.10;;;676.35;;
18274;SDS011;19470;49.322;7.218;2023-08-31T12:25:40;593.58;;;557.55;;
18274;SDS011;19470;49.322;7.218;2023-08-31T12:28:11;790.83;;;729.15;;
18274;SDS011;19470;49.322;7.218;2023-08-31T12:30:41;782.95;;;728.10;;
18274;SDS011;19470;49.322;7.218;2023-08-31T12:33:09;825.80;;;758.47;;
18274;SDS011;19470;49.322;7.218;2023-08-31T12:35:35;731.35;;;683.65;;
18274;SDS011;19470;49.322;7.218;2023-08-31T12:38:03;672.83;;;630.42;;
18274;SDS011;19470;49.322;7.218;2023-08-31T12:40:30;677.13;;;633.08;;
18274;SDS011;19470;49.322;7.218;2023-08-31T12:42:56;691.75;;;646.75;;
18274;SDS011;19470;49.322;7.218;2023-08-31T12:45:23;696.05;;;650.85;;
18274;SDS011;19470;49.322;7.218;2023-08-31T12:47:51;621.17;;;582.53;;
18274;SDS011;19470;49.322;7.218;2023-08-31T12:50:17;640.50;;;598.88;;
18274;SDS011;19470;49.322;7.218;2023-08-31T12:52:44;760.70;;;709.05;;
18274;SDS011;19470;49.322;7.218;2023-08-31T12:55:11;510.25;;;479.23;;
18274;SDS011;19470;49.322;7.218;2023-08-31T12:57:38;533.67;;;499.20;;
18274;SDS011;19470;49.322;7.218;2023-08-31T13:00:05;660.15;;;618.25;;
18274;SDS011;19470;49.322;7.218;2023-08-31T13:02:34;427.60;;;402.63;;
18274;SDS011;19470;49.322;7.218;2023-08-31T13:05:02;401.83;;;378.42;;
18274;SDS011;19470;49.322;7.218;2023-08-31T13:07:30;622.28;;;583.03;;
18274;SDS011;19470;49.322;7.218;2023-08-31T13:09:57;490.80;;;461.17;;
18274;SDS011;19470;49.322;7.218;2023-08-31T13:12:24;407.20;;;383.67;;
18274;SDS011;19470;49.322;7.218;2023-08-31T13:14:50;655.03;;;612.53;;
18274;SDS011;19470;49.322;7.218;2023-08-31T13:17:17;871.40;;;786.92;;
18274;SDS011;19470;49.322;7.218;2023-08-31T13:19:43;689.70;;;646.00;;
18274;SDS011;19470;49.322;7.218;2023-08-31T13:22:11;395.90;;;373.20;;
18274;SDS011;19470;49.322;7.218;2023-08-31T13:24:40;303.58;;;286.95;;
18274;SDS011;19470;49.322;7.218;2023-08-31T13:27:07;301.15;;;283.67;;
18274;SDS011;19470;49.322;7.218;2023-08-31T13:29:33;163.95;;;154.95;;
18274;SDS011;19470;49.322;7.218;2023-08-31T13:32:00;326.38;;;303.67;;
18274;SDS011;19470;49.322;7.218;2023-08-31T13:34:26;167.90;;;158.57;;
18274;SDS011;19470;49.322;7.218;2023-08-31T13:36:52;89.03;;;83.63;;
18274;SDS011;19470;49.322;7.218;2023-08-31T13:39:20;162.63;;;153.65;;
18274;SDS011;19470;49.322;7.218;2023-08-31T13:41:48;207.63;;;196.32;;
18274;SDS011;19470;49.322;7.218;2023-08-31T13:44:17;150.38;;;142.15;;
18274;SDS011;19470;49.322;7.218;2023-08-31T13:46:44;159.52;;;150.77;;
18274;SDS011;19470;49.322;7.218;2023-08-31T13:49:10;218.82;;;206.93;;
18274;SDS011;19470;49.322;7.218;2023-08-31T13:51:36;219.45;;;207.85;;
18274;SDS011;19470;49.322;7.218;2023-08-31T13:54:04;520.10;;;488.60;;
18274;SDS011;19470;49.322;7.218;2023-08-31T13:56:33;383.30;;;361.30;;
18274;SDS011;19470;49.322;7.218;2023-08-31T13:59:00;375.50;;;354.38;;
18274;SDS011;19470;49.322;7.218;2023-08-31T14:01:26;344.17;;;324.33;;
18274;SDS011;19470;49.322;7.218;2023-08-31T14:03:53;554.20;;;519.58;;
18274;SDS011;19470;49.322;7.218;2023-08-31T14:06:19;607.92;;;570.15;;
18274;SDS011;19470;49.322;7.218;2023-08-31T14:08:46;751.13;;;701.25;;
18274;SDS011;19470;49.322;7.218;2023-08-31T14:11:13;707.60;;;661.30;;
18274;SDS011;19470;49.322;7.218;2023-08-31T14:13:42;720.53;;;673.53;;
18274;SDS011;19470;49.322;7.218;2023-08-31T14:16:09;639.97;;;599.65;;
18274;SDS011;19470;49.322;7.218;2023-08-31T14:18:36;656.88;;;614.63;;
18274;SDS011;19470;49.322;7.218;2023-08-31T14:21:03;491.23;;;460.33;;
18274;SDS011;19470;49.322;7.218;2023-08-31T14:23:30;271.20;;;256.48;;
18274;SDS011;19470;49.322;7.218;2023-08-31T14:26:00;219.80;;;207.23;;
18274;SDS011;19470;49.322;7.218;2023-08-31T14:28:28;142.75;;;133.75;;